createdAt,value
2023-02-27T00:00:41.067Z,11.85
2023-02-27T00:03:08.966Z,11.63
2023-02-27T00:05:36.953Z,8.25
2023-02-27T00:08:04.887Z,6.75
2023-02-27T00:10:32.772Z,10.38
2023-02-27T00:13:00.643Z,7.32
2023-02-27T00:15:30.817Z,10.43
2023-02-27T00:17:58.777Z,7.95
2023-02-27T00:20:26.964Z,6.85
2023-02-27T00:22:54.823Z,9.57
2023-02-27T00:25:22.689Z,9.77
2023-02-27T00:27:50.519Z,9.43
2023-02-27T00:30:18.563Z,7.68
2023-02-27T00:32:47.919Z,7.05
2023-02-27T00:35:15.789Z,10.00
2023-02-27T00:37:43.742Z,8.05
2023-02-27T00:40:12.928Z,6.28
2023-02-27T00:42:40.864Z,6.28
2023-02-27T00:45:09.719Z,5.75
2023-02-27T00:47:37.984Z,7.40
2023-02-27T00:50:07.815Z,5.75
2023-02-27T00:52:35.670Z,7.60
2023-02-27T00:55:03.541Z,8.10
2023-02-27T00:57:31.416Z,5.75
2023-02-27T00:59:59.289Z,6.82
2023-02-27T01:02:27.285Z,6.10
2023-02-27T01:04:56.953Z,6.03
2023-02-27T01:07:26.388Z,6.28
2023-02-27T01:09:54.770Z,6.32
2023-02-27T01:12:22.666Z,5.68
2023-02-27T01:14:50.488Z,6.35
2023-02-27T01:17:18.808Z,6.68
2023-02-27T01:19:46.696Z,5.63
2023-02-27T01:22:14.559Z,7.60
2023-02-27T01:24:44.212Z,6.03
2023-02-27T01:27:12.078Z,7.47
2023-02-27T01:29:40.041Z,5.93
2023-02-27T01:32:08.003Z,5.68
2023-02-27T01:34:36.113Z,5.40
2023-02-27T01:37:04.145Z,5.78
2023-02-27T01:39:32.896Z,4.82
2023-02-27T01:42:02.137Z,6.22
2023-02-27T01:44:31.398Z,5.65
2023-02-27T01:46:59.257Z,5.80
2023-02-27T01:49:28.515Z,5.07
2023-02-27T01:52:01.883Z,5.18
2023-02-27T01:54:30.581Z,5.93
2023-02-27T01:56:58.481Z,4.57
2023-02-27T01:59:27.673Z,4.80
2023-02-27T02:01:55.492Z,5.22
2023-02-27T02:04:25.252Z,6.35
2023-02-27T02:06:56.963Z,6.00
2023-02-27T02:09:24.943Z,4.03
2023-02-27T02:11:53.035Z,4.43
2023-02-27T02:14:21.157Z,5.43
2023-02-27T02:17:01.181Z,4.35
2023-02-27T02:19:56.906Z,3.58
2023-02-27T02:22:50.887Z,4.15
2023-02-27T02:26:01.325Z,4.00
2023-02-27T02:28:43.385Z,5.03
2023-02-27T02:31:36.023Z,4.95
2023-02-27T02:34:32.284Z,3.33
2023-02-27T02:37:31.612Z,4.38
2023-02-27T02:40:19.344Z,4.43
2023-02-27T02:42:50.570Z,3.92
2023-02-27T02:45:23.610Z,3.42
2023-02-27T02:48:01.101Z,5.85
2023-02-27T02:50:31.256Z,4.53
2023-02-27T02:53:04.110Z,5.30
2023-02-27T02:55:34.207Z,3.72
2023-02-27T02:58:04.234Z,4.03
2023-02-27T03:00:33.623Z,2.97
2023-02-27T03:03:06.542Z,5.05
2023-02-27T03:05:36.294Z,3.85
2023-02-27T03:08:05.152Z,5.05
2023-02-27T03:10:36.162Z,4.35
2023-02-27T03:13:05.467Z,4.28
2023-02-27T03:15:36.310Z,4.15
2023-02-27T03:18:05.657Z,4.30
2023-02-27T03:20:34.914Z,3.65
2023-02-27T03:23:05.039Z,4.05
2023-02-27T03:25:33.255Z,3.45
2023-02-27T03:28:05.106Z,5.93
2023-02-27T03:30:35.929Z,2.92
2023-02-27T03:33:06.172Z,7.88
2023-02-27T03:35:40.065Z,3.08
2023-02-27T03:38:10.412Z,4.13
2023-02-27T03:40:40.304Z,3.25
2023-02-27T03:43:14.309Z,3.90
2023-02-27T03:45:56.702Z,3.65
2023-02-27T03:48:24.662Z,4.18
2023-02-27T03:50:52.544Z,3.30
2023-02-27T03:53:24.147Z,3.50
2023-02-27T03:55:52.120Z,3.42
2023-02-27T03:58:21.345Z,2.95
2023-02-27T04:00:49.395Z,4.28
2023-02-27T04:03:17.385Z,2.72
2023-02-27T04:05:45.272Z,3.00
2023-02-27T04:08:25.033Z,2.95
2023-02-27T04:11:02.056Z,3.67
2023-02-27T04:13:53.228Z,3.00
2023-02-27T04:16:40.849Z,3.50
2023-02-27T04:19:22.184Z,2.72
2023-02-27T04:21:53.462Z,3.13
2023-02-27T04:24:26.962Z,4.20
2023-02-27T04:26:56.209Z,3.17
2023-02-27T04:29:29.470Z,4.95
2023-02-27T04:32:00.632Z,3.75
2023-02-27T04:34:30.302Z,3.38
2023-02-27T04:36:59.165Z,3.67
2023-02-27T04:39:28.673Z,3.40
2023-02-27T04:41:58.241Z,3.50
2023-02-27T04:44:27.417Z,3.50
2023-02-27T04:46:55.533Z,3.70
2023-02-27T04:49:24.627Z,5.55
2023-02-27T04:51:53.961Z,3.17
2023-02-27T04:54:23.819Z,3.45
2023-02-27T04:56:53.620Z,7.95
2023-02-27T04:59:22.934Z,5.05
2023-02-27T05:01:54.910Z,2.65
2023-02-27T05:04:23.036Z,2.88
2023-02-27T05:06:50.965Z,3.97
2023-02-27T05:09:21.477Z,5.35
2023-02-27T05:11:51.923Z,2.85
2023-02-27T05:14:21.369Z,3.30
2023-02-27T05:16:52.618Z,3.53
2023-02-27T05:19:20.706Z,4.28
2023-02-27T05:21:51.506Z,2.55
2023-02-27T05:24:23.418Z,3.03
2023-02-27T05:26:59.673Z,4.97
2023-02-27T05:29:30.008Z,2.72
2023-02-27T05:32:04.670Z,2.97
2023-02-27T05:34:35.325Z,4.45
2023-02-27T05:37:04.381Z,3.15
2023-02-27T05:39:32.660Z,3.13
2023-02-27T05:42:02.699Z,2.95
2023-02-27T05:44:31.312Z,3.05
2023-02-27T05:47:01.669Z,3.30
2023-02-27T05:49:33.472Z,3.70
2023-02-27T05:52:02.778Z,3.35
2023-02-27T05:54:33.154Z,3.30
2023-02-27T05:57:01.178Z,2.67
2023-02-27T05:59:31.073Z,2.55
2023-02-27T06:02:00.303Z,3.08
2023-02-27T06:04:28.173Z,3.78
2023-02-27T06:06:57.082Z,3.72
2023-02-27T06:09:24.997Z,3.17
2023-02-27T06:11:52.849Z,3.10
2023-02-27T06:14:20.787Z,4.78
2023-02-27T06:16:48.974Z,2.72
2023-02-27T06:19:19.400Z,2.67
2023-02-27T06:21:47.467Z,4.38
2023-02-27T06:24:15.341Z,5.07
2023-02-27T06:26:43.217Z,3.25
2023-02-27T06:29:11.098Z,5.57
2023-02-27T06:31:38.992Z,4.63
2023-02-27T06:34:06.860Z,23.30
2023-02-27T06:36:36.137Z,26.90
2023-02-27T06:39:04.814Z,32.53
2023-02-27T06:41:32.952Z,24.25
2023-02-27T06:44:00.817Z,32.85
2023-02-27T06:46:29.177Z,29.30
2023-02-27T06:48:57.386Z,27.77
2023-02-27T06:51:25.234Z,25.38
2023-02-27T06:53:54.494Z,26.45
2023-02-27T06:56:22.414Z,33.90
2023-02-27T06:58:50.285Z,22.92
2023-02-27T07:01:18.170Z,35.15
2023-02-27T07:03:46.186Z,31.63
2023-02-27T07:06:14.082Z,33.28
2023-02-27T07:09:01.246Z,29.92
2023-02-27T07:11:31.186Z,25.27
2023-02-27T07:13:59.052Z,29.90
2023-02-27T07:16:27.225Z,28.08
2023-02-27T07:18:55.278Z,28.70
2023-02-27T07:21:23.219Z,25.30
2023-02-27T07:23:51.107Z,25.55
2023-02-27T07:26:19.074Z,29.58
2023-02-27T07:28:48.315Z,22.70
2023-02-27T07:31:16.243Z,28.65
2023-02-27T07:33:44.165Z,24.92
2023-02-27T07:36:12.087Z,26.55
2023-02-27T07:38:39.985Z,22.65
2023-02-27T07:41:08.643Z,25.05
2023-02-27T07:43:37.371Z,21.95
2023-02-27T07:46:06.806Z,22.20
2023-02-27T07:48:34.848Z,19.63
2023-02-27T07:51:02.773Z,19.48
2023-02-27T07:53:30.625Z,14.05
2023-02-27T07:55:58.499Z,22.95
2023-02-27T07:58:26.443Z,22.08
2023-02-27T08:00:54.659Z,16.17
2023-02-27T08:03:23.947Z,15.27
2023-02-27T08:05:51.840Z,17.20
2023-02-27T08:08:19.719Z,15.68
2023-02-27T08:10:47.620Z,16.10
2023-02-27T08:13:20.656Z,17.00
2023-02-27T08:15:54.197Z,16.50
2023-02-27T08:18:23.432Z,14.40
2023-02-27T08:20:51.270Z,15.55
2023-02-27T08:23:19.154Z,13.70
2023-02-27T08:25:47.090Z,13.57
2023-02-27T08:28:15.079Z,16.50
2023-02-27T08:30:42.919Z,14.95
2023-02-27T08:33:10.804Z,16.77
2023-02-27T08:35:40.062Z,15.15
2023-02-27T08:38:07.974Z,16.67
2023-02-27T08:40:35.804Z,14.40
2023-02-27T08:43:03.685Z,13.63
2023-02-27T08:45:31.701Z,13.38
2023-02-27T08:47:59.654Z,11.43
2023-02-27T08:50:27.468Z,13.07
2023-02-27T08:52:56.674Z,21.77
2023-02-27T08:55:24.618Z,50.53
2023-02-27T08:57:52.449Z,60.13
2023-02-27T09:00:21.457Z,61.65
2023-02-27T09:02:49.344Z,76.82
2023-02-27T09:05:17.282Z,79.03
2023-02-27T09:07:45.186Z,76.50
2023-02-27T09:10:14.817Z,77.32
2023-02-27T09:12:42.978Z,74.88
2023-02-27T09:15:12.246Z,46.90
2023-02-27T09:17:40.102Z,42.88
2023-02-27T09:20:09.601Z,41.85
2023-02-27T09:22:37.539Z,48.33
2023-02-27T09:25:06.009Z,39.33
2023-02-27T09:27:35.361Z,33.88
2023-02-27T09:30:03.244Z,33.72
2023-02-27T09:32:31.186Z,37.78
2023-02-27T09:35:00.433Z,33.80
2023-02-27T09:37:28.395Z,31.20
2023-02-27T09:39:56.235Z,26.63
2023-02-27T09:42:25.437Z,29.23
2023-02-27T09:44:56.497Z,35.08
2023-02-27T09:47:25.717Z,32.50
2023-02-27T09:49:59.381Z,27.55
2023-02-27T09:52:27.455Z,26.15
2023-02-27T09:54:55.383Z,26.80
2023-02-27T09:57:29.439Z,22.50
2023-02-27T10:00:01.000Z,27.40
2023-02-27T10:02:35.685Z,26.75
2023-02-27T10:05:05.446Z,30.13
2023-02-27T10:07:36.180Z,21.38
2023-02-27T10:10:08.574Z,18.52
2023-02-27T10:12:49.997Z,24.35
2023-02-27T10:15:22.267Z,22.65
2023-02-27T10:17:51.408Z,16.20
2023-02-27T10:20:23.610Z,22.77
2023-02-27T10:22:51.474Z,21.02
2023-02-27T10:25:31.332Z,18.92
2023-02-27T10:28:03.596Z,17.05
2023-02-27T10:30:34.998Z,13.65
2023-02-27T10:33:11.001Z,16.70
2023-02-27T10:35:40.457Z,17.02
2023-02-27T10:38:12.353Z,18.23
2023-02-27T10:40:40.625Z,19.40
2023-02-27T10:43:08.463Z,17.23
2023-02-27T10:45:38.992Z,13.77
2023-02-27T10:48:08.500Z,13.05
2023-02-27T10:50:37.738Z,14.90
2023-02-27T10:53:07.575Z,13.10
2023-02-27T10:55:36.625Z,12.60
2023-02-27T10:58:04.552Z,11.65
2023-02-27T11:00:39.688Z,9.63
2023-02-27T11:03:07.862Z,12.77
2023-02-27T11:05:36.838Z,15.15
2023-02-27T11:08:15.303Z,12.48
2023-02-27T11:10:58.812Z,14.98
2023-02-27T11:13:27.440Z,8.27
2023-02-27T11:16:12.084Z,15.15
2023-02-27T11:18:40.326Z,10.55
2023-02-27T11:21:18.031Z,10.68
2023-02-27T11:23:53.950Z,12.85
2023-02-27T11:26:24.367Z,9.85
2023-02-27T11:29:06.284Z,10.68
2023-02-27T11:31:36.491Z,10.70
2023-02-27T11:34:04.937Z,9.60
2023-02-27T11:36:43.148Z,10.75
2023-02-27T11:39:23.615Z,8.93
2023-02-27T11:41:51.500Z,8.52
2023-02-27T11:44:27.339Z,9.77
2023-02-27T11:47:15.474Z,10.80
2023-02-27T11:49:53.196Z,8.73
2023-02-27T11:52:22.081Z,8.52
2023-02-27T11:54:50.927Z,6.95
2023-02-27T11:57:22.951Z,8.23
2023-02-27T11:59:51.875Z,7.35
2023-02-27T12:02:24.166Z,7.65
2023-02-27T12:04:53.482Z,7.05
2023-02-27T12:07:24.166Z,7.10
2023-02-27T12:09:55.583Z,8.18
2023-02-27T12:12:25.362Z,8.90
2023-02-27T12:15:01.587Z,6.10
2023-02-27T12:17:34.999Z,7.30
2023-02-27T12:20:19.794Z,7.97
2023-02-27T12:22:48.630Z,6.43
2023-02-27T12:25:21.987Z,6.53
2023-02-27T12:27:52.659Z,7.82
2023-02-27T12:30:22.401Z,5.88
2023-02-27T12:32:54.454Z,5.97
2023-02-27T12:35:24.472Z,6.35
2023-02-27T12:37:52.536Z,5.57
2023-02-27T12:40:21.377Z,7.22
2023-02-27T12:43:11.953Z,5.70
2023-02-27T12:45:57.157Z,5.95
2023-02-27T12:48:33.300Z,8.02
2023-02-27T12:51:05.406Z,6.63
2023-02-27T12:53:53.947Z,5.95
2023-02-27T12:56:22.538Z,5.60
2023-02-27T12:58:55.063Z,4.82
2023-02-27T13:01:32.733Z,5.43
2023-02-27T13:04:04.604Z,5.90
2023-02-27T13:06:35.920Z,5.63
2023-02-27T13:09:10.572Z,4.65
2023-02-27T13:11:48.078Z,6.68
2023-02-27T13:14:24.294Z,5.05
2023-02-27T13:16:54.600Z,5.65
2023-02-27T13:19:25.687Z,4.65
2023-02-27T13:21:55.228Z,4.72
2023-02-27T13:24:26.105Z,5.20
2023-02-27T13:26:57.628Z,5.30
2023-02-27T13:29:38.002Z,5.53
2023-02-27T13:32:15.482Z,5.28
2023-02-27T13:34:45.366Z,5.03
2023-02-27T13:37:13.294Z,4.10
2023-02-27T13:39:53.581Z,5.15
2023-02-27T13:42:57.391Z,5.85
2023-02-27T13:45:48.041Z,3.63
2023-02-27T13:48:41.751Z,3.97
2023-02-27T13:51:13.122Z,4.90
2023-02-27T13:53:41.439Z,5.93
2023-02-27T13:56:22.978Z,3.95
2023-02-27T13:58:51.206Z,5.88
2023-02-27T14:01:22.124Z,4.35
2023-02-27T14:03:56.755Z,4.40
2023-02-27T14:06:26.467Z,4.65
2023-02-27T14:09:08.881Z,4.53
2023-02-27T14:11:42.069Z,4.32
2023-02-27T14:14:11.004Z,4.18
2023-02-27T14:16:55.972Z,4.85
2023-02-27T14:19:59.118Z,3.08
2023-02-27T14:23:08.616Z,5.30
2023-02-27T14:25:39.314Z,5.30
2023-02-27T14:28:13.206Z,4.35
2023-02-27T14:30:43.510Z,6.07
2023-02-27T14:33:40.202Z,3.00
2023-02-27T14:36:10.522Z,5.25
2023-02-27T14:38:38.596Z,3.60
2023-02-27T14:41:16.213Z,4.65
2023-02-27T14:43:45.927Z,4.28
2023-02-27T14:46:19.590Z,3.80
2023-02-27T14:48:47.571Z,4.00
2023-02-27T14:51:16.957Z,4.38
2023-02-27T14:53:44.868Z,4.20
2023-02-27T14:56:18.864Z,3.65
2023-02-27T14:58:55.670Z,3.63
2023-02-27T15:01:35.188Z,3.15
2023-02-27T15:04:03.314Z,4.13
2023-02-27T15:06:35.438Z,4.22
2023-02-27T15:09:03.382Z,5.43
2023-02-27T15:11:32.746Z,4.65
2023-02-27T15:14:02.046Z,3.85
2023-02-27T15:16:38.425Z,3.97
2023-02-27T15:19:14.469Z,3.85
2023-02-27T15:21:44.334Z,6.88
2023-02-27T15:24:24.750Z,8.27
2023-02-27T15:26:56.199Z,7.32
2023-02-27T15:29:27.195Z,4.28
2023-02-27T15:31:55.274Z,3.05
2023-02-27T15:34:23.280Z,3.35
2023-02-27T15:36:52.737Z,4.18
2023-02-27T15:39:21.825Z,3.72
2023-02-27T15:41:50.956Z,4.18
2023-02-27T15:44:21.989Z,5.05
2023-02-27T15:46:49.894Z,4.07
2023-02-27T15:49:19.333Z,4.07
2023-02-27T15:51:55.472Z,4.57
2023-02-27T15:54:23.972Z,4.95
2023-02-27T15:56:52.483Z,4.55
2023-02-27T15:59:21.745Z,5.10
2023-02-27T16:01:50.632Z,5.40
2023-02-27T16:04:21.525Z,5.53
2023-02-27T16:06:51.080Z,4.45
2023-02-27T16:09:22.060Z,3.40
2023-02-27T16:11:50.493Z,4.20
2023-02-27T16:14:39.499Z,5.13
2023-02-27T16:17:23.577Z,4.03
2023-02-27T16:19:51.542Z,4.97
2023-02-27T16:22:20.397Z,3.45
2023-02-27T16:24:48.385Z,5.15
2023-02-27T16:27:31.436Z,6.80
2023-02-27T16:30:04.999Z,4.22
2023-02-27T16:32:35.831Z,6.30
2023-02-27T16:35:04.774Z,5.32
2023-02-27T16:37:36.962Z,5.93
2023-02-27T16:40:10.350Z,4.60
2023-02-27T16:42:38.329Z,7.10
2023-02-27T16:45:08.964Z,4.13
2023-02-27T16:47:36.851Z,4.25
2023-02-27T16:50:05.120Z,6.60
2023-02-27T16:52:33.072Z,3.63
2023-02-27T16:55:01.035Z,6.88
2023-02-27T16:57:28.927Z,4.07
2023-02-27T17:00:29.198Z,3.75
2023-02-27T17:03:01.912Z,3.38
2023-02-27T17:05:29.802Z,4.72
2023-02-27T17:07:57.923Z,3.55
2023-02-27T17:10:25.897Z,3.53
2023-02-27T17:12:53.887Z,3.40
2023-02-27T17:15:22.052Z,5.55
2023-02-27T17:17:49.973Z,4.53
2023-02-27T17:20:19.501Z,2.88
2023-02-27T17:22:47.548Z,4.07
2023-02-27T17:25:15.585Z,4.30
2023-02-27T17:27:43.560Z,4.40
2023-02-27T17:30:13.088Z,3.33
2023-02-27T17:32:41.076Z,3.55
2023-02-27T17:35:11.710Z,5.03
2023-02-27T17:37:40.998Z,8.60
2023-02-27T17:40:12.166Z,4.68
2023-02-27T17:42:40.327Z,5.03
2023-02-27T17:45:09.409Z,5.53
2023-02-27T17:47:37.761Z,3.83
2023-02-27T17:50:06.401Z,3.88
2023-02-27T17:52:36.307Z,4.35
2023-02-27T17:55:06.145Z,5.30
2023-02-27T17:57:35.937Z,4.43
2023-02-27T18:00:05.138Z,3.75
2023-02-27T18:02:33.081Z,4.18
2023-02-27T18:05:01.911Z,4.30
2023-02-27T18:07:29.815Z,2.90
2023-02-27T18:09:57.769Z,3.28
2023-02-27T18:12:28.272Z,3.83
2023-02-27T18:14:56.335Z,5.38
2023-02-27T18:17:24.368Z,2.97
2023-02-27T18:19:52.538Z,7.93
2023-02-27T18:22:21.748Z,4.43
2023-02-27T18:24:49.991Z,4.57
2023-02-27T18:27:18.927Z,4.25
2023-02-27T18:29:48.232Z,5.70
2023-02-27T18:32:16.272Z,5.82
2023-02-27T18:34:45.120Z,6.38
2023-02-27T18:37:13.132Z,8.00
2023-02-27T18:39:42.288Z,5.38
2023-02-27T18:42:10.760Z,5.22
2023-02-27T18:44:41.215Z,8.75
2023-02-27T18:47:12.142Z,6.50
2023-02-27T18:49:40.261Z,7.97
2023-02-27T18:52:08.350Z,5.85
2023-02-27T18:54:36.443Z,7.80
2023-02-27T18:57:06.006Z,6.75
2023-02-27T18:59:34.316Z,14.10
2023-02-27T19:02:02.326Z,14.90
2023-02-27T19:04:34.250Z,10.55
2023-02-27T19:07:02.250Z,6.25
2023-02-27T19:09:32.799Z,8.35
2023-02-27T19:12:01.059Z,11.30
2023-02-27T19:14:29.449Z,9.70
2023-02-27T19:17:00.455Z,10.48
2023-02-27T19:19:29.129Z,12.35
2023-02-27T19:21:58.601Z,9.40
2023-02-27T19:24:26.642Z,8.27
2023-02-27T19:26:54.656Z,7.90
2023-02-27T19:29:23.085Z,8.63
2023-02-27T19:31:51.246Z,9.77
2023-02-27T19:34:19.394Z,7.10
2023-02-27T19:36:51.630Z,11.25
2023-02-27T19:39:22.501Z,9.25
2023-02-27T19:41:50.833Z,6.80
2023-02-27T19:44:19.064Z,7.82
2023-02-27T19:46:51.489Z,8.80
2023-02-27T19:49:20.159Z,13.52
2023-02-27T19:51:48.117Z,6.15
2023-02-27T19:54:16.467Z,6.57
2023-02-27T19:56:45.919Z,8.00
2023-02-27T19:59:14.079Z,11.50
2023-02-27T20:01:42.056Z,7.03
2023-02-27T20:04:11.496Z,10.38
2023-02-27T20:06:42.720Z,9.15
2023-02-27T20:09:11.051Z,6.75
2023-02-27T20:11:39.630Z,6.95
2023-02-27T20:14:09.035Z,8.55
2023-02-27T20:16:37.409Z,6.32
2023-02-27T20:19:05.723Z,6.80
2023-02-27T20:21:34.186Z,5.97
2023-02-27T20:24:02.414Z,7.35
2023-02-27T20:26:31.984Z,12.68
2023-02-27T20:29:00.941Z,6.10
2023-02-27T20:31:32.419Z,7.85
2023-02-27T20:34:01.296Z,6.60
2023-02-27T20:36:29.351Z,7.10
2023-02-27T20:38:58.009Z,10.75
2023-02-27T20:41:28.353Z,7.90
2023-02-27T20:43:57.185Z,7.63
2023-02-27T20:46:26.665Z,9.85
2023-02-27T20:48:57.668Z,11.57
2023-02-27T20:51:26.196Z,6.93
2023-02-27T20:53:55.226Z,6.85
2023-02-27T20:56:23.774Z,7.93
2023-02-27T20:58:51.711Z,8.68
2023-02-27T21:01:19.817Z,7.68
2023-02-27T21:03:50.331Z,10.73
2023-02-27T21:06:19.790Z,11.18
2023-02-27T21:08:49.099Z,22.73
2023-02-27T21:11:18.114Z,22.30
2023-02-27T21:13:46.073Z,26.80
2023-02-27T21:16:14.873Z,26.67
2023-02-27T21:18:44.757Z,37.17
2023-02-27T21:21:14.536Z,26.08
2023-02-27T21:23:43.740Z,28.77
2023-02-27T21:26:12.618Z,29.80
2023-02-27T21:28:46.740Z,18.10
2023-02-27T21:31:15.251Z,29.17
2023-02-27T21:33:43.213Z,23.20
2023-02-27T21:36:11.296Z,25.00
2023-02-27T21:38:39.215Z,32.95
2023-02-27T21:41:11.435Z,20.33
2023-02-27T21:43:40.830Z,25.98
2023-02-27T21:46:09.422Z,23.80
2023-02-27T21:48:37.444Z,26.10
2023-02-27T21:51:05.904Z,21.10
2023-02-27T21:53:33.831Z,22.95
2023-02-27T21:56:04.078Z,20.95
2023-02-27T21:58:33.629Z,20.63
2023-02-27T22:01:01.654Z,17.33
2023-02-27T22:03:34.126Z,21.77
2023-02-27T22:06:02.236Z,24.75
2023-02-27T22:08:30.425Z,18.65
2023-02-27T22:10:58.490Z,22.08
2023-02-27T22:13:26.591Z,19.05
2023-02-27T22:15:56.380Z,19.05
2023-02-27T22:18:26.115Z,26.55
2023-02-27T22:20:54.020Z,21.27
2023-02-27T22:23:22.072Z,20.10
2023-02-27T22:25:59.860Z,26.25
2023-02-27T22:28:27.770Z,20.25
2023-02-27T22:31:08.201Z,23.67
2023-02-27T22:33:36.332Z,20.05
2023-02-27T22:36:07.435Z,17.70
2023-02-27T22:38:35.419Z,20.85
2023-02-27T22:41:07.495Z,17.92
2023-02-27T22:43:35.389Z,18.80
2023-02-27T22:46:04.821Z,20.10
2023-02-27T22:48:32.708Z,19.77
2023-02-27T22:51:02.967Z,16.17
2023-02-27T22:53:32.971Z,19.23
2023-02-27T22:56:00.970Z,17.20
2023-02-27T22:58:29.550Z,19.48
2023-02-27T23:00:57.392Z,18.35
2023-02-27T23:03:26.583Z,16.23
2023-02-27T23:05:54.630Z,23.42
2023-02-27T23:08:22.490Z,20.02
2023-02-27T23:10:50.328Z,18.98
2023-02-27T23:13:18.406Z,19.58
2023-02-27T23:15:47.316Z,19.25
2023-02-27T23:18:15.177Z,20.65
2023-02-27T23:20:44.401Z,22.58
2023-02-27T23:23:12.236Z,21.30
2023-02-27T23:25:40.151Z,20.10
2023-02-27T23:28:08.696Z,20.52
2023-02-27T23:30:36.619Z,18.55
2023-02-27T23:33:04.543Z,22.65
2023-02-27T23:35:32.490Z,18.70
2023-02-27T23:38:01.760Z,19.30
2023-02-27T23:40:29.663Z,22.50
2023-02-27T23:42:57.546Z,20.88
2023-02-27T23:45:25.435Z,18.73
2023-02-27T23:47:53.777Z,22.15
2023-02-27T23:50:22.232Z,19.58
2023-02-27T23:52:50.840Z,19.05
2023-02-27T23:55:21.032Z,21.33
2023-02-27T23:57:48.963Z,20.55
